sensor_id;sensor_type;location;lat;lon;timestamp;P1;durP1;ratioP1;P2;durP2;ratioP2
40373;SDS011;26079;45.958;12.492;2023-01-23T00:01:10;14.48;;;10.15;;
40373;SDS011;26079;45.958;12.492;2023-01-23T00:03:39;14.15;;;10.27;;
40373;SDS011;26079;45.958;12.492;2023-01-23T00:06:06;15.45;;;10.55;;
40373;SDS011;26079;45.958;12.492;2023-01-23T00:08:43;15.85;;;11.00;;
40373;SDS011;26079;45.958;12.492;2023-01-23T00:11:11;14.68;;;10.15;;
40373;SDS011;26079;45.958;12.492;2023-01-23T00:13:38;14.55;;;10.75;;
40373;SDS011;26079;45.958;12.492;2023-01-23T00:16:04;15.30;;;9.57;;
40373;SDS011;26079;45.958;12.492;2023-01-23T00:18:35;13.93;;;9.77;;
40373;SDS011;26079;45.958;12.492;2023-01-23T00:21:08;14.73;;;9.82;;
40373;SDS011;26079;45.958;12.492;2023-01-23T00:23:35;16.40;;;10.07;;
40373;SDS011;26079;45.958;12.492;2023-01-23T00:26:05;14.43;;;9.90;;
40373;SDS011;26079;45.958;12.492;2023-01-23T00:28:33;11.35;;;8.70;;
40373;SDS011;26079;45.958;12.492;2023-01-23T00:31:03;11.88;;;9.57;;
40373;SDS011;26079;45.958;12.492;2023-01-23T00:33:30;8.57;;;6.82;;
40373;SDS011;26079;45.958;12.492;2023-01-23T00:35:55;15.40;;;8.93;;
40373;SDS011;26079;45.958;12.492;2023-01-23T00:38:21;12.77;;;9.70;;
40373;SDS011;26079;45.958;12.492;2023-01-23T00:40:47;13.45;;;10.52;;
40373;SDS011;26079;45.958;12.492;2023-01-23T00:43:12;13.13;;;8.73;;
40373;SDS011;26079;45.958;12.492;2023-01-23T00:45:38;7.45;;;6.65;;
40373;SDS011;26079;45.958;12.492;2023-01-23T00:48:04;9.15;;;5.63;;
40373;SDS011;26079;45.958;12.492;2023-01-23T00:50:30;3.78;;;2.65;;
40373;SDS011;26079;45.958;12.492;2023-01-23T00:52:55;1.52;;;1.13;;
40373;SDS011;26079;45.958;12.492;2023-01-23T00:55:21;0.98;;;0.80;;
40373;SDS011;26079;45.958;12.492;2023-01-23T00:57:46;2.17;;;0.93;;
40373;SDS011;26079;45.958;12.492;2023-01-23T01:00:12;1.83;;;0.57;;
40373;SDS011;26079;45.958;12.492;2023-01-23T01:02:38;0.85;;;0.85;;
40373;SDS011;26079;45.958;12.492;2023-01-23T01:05:04;0.70;;;0.63;;
40373;SDS011;26079;45.958;12.492;2023-01-23T01:07:30;1.15;;;1.02;;
40373;SDS011;26079;45.958;12.492;2023-01-23T01:09:56;1.52;;;1.27;;
40373;SDS011;26079;45.958;12.492;2023-01-23T01:12:22;0.60;;;0.60;;
40373;SDS011;26079;45.958;12.492;2023-01-23T01:14:47;1.63;;;1.00;;
40373;SDS011;26079;45.958;12.492;2023-01-23T01:17:13;1.33;;;1.08;;
40373;SDS011;26079;45.958;12.492;2023-01-23T01:19:39;2.13;;;1.50;;
40373;SDS011;26079;45.958;12.492;2023-01-23T01:22:05;1.08;;;0.98;;
40373;SDS011;26079;45.958;12.492;2023-01-23T01:24:30;1.05;;;0.60;;
40373;SDS011;26079;45.958;12.492;2023-01-23T01:26:56;1.77;;;1.42;;
40373;SDS011;26079;45.958;12.492;2023-01-23T01:29:22;2.20;;;1.58;;
40373;SDS011;26079;45.958;12.492;2023-01-23T01:31:47;2.15;;;1.70;;
40373;SDS011;26079;45.958;12.492;2023-01-23T01:34:13;1.98;;;0.90;;
40373;SDS011;26079;45.958;12.492;2023-01-23T01:36:39;1.52;;;0.88;;
40373;SDS011;26079;45.958;12.492;2023-01-23T01:39:04;1.15;;;1.05;;
40373;SDS011;26079;45.958;12.492;2023-01-23T01:41:30;2.95;;;2.65;;
40373;SDS011;26079;45.958;12.492;2023-01-23T01:43:56;2.63;;;1.63;;
40373;SDS011;26079;45.958;12.492;2023-01-23T01:48:55;0.50;;;0.50;;
40373;SDS011;26079;45.958;12.492;2023-01-23T01:51:28;1.33;;;0.90;;
40373;SDS011;26079;45.958;12.492;2023-01-23T01:57:01;0.90;;;0.60;;
40373;SDS011;26079;45.958;12.492;2023-01-23T02:02:38;1.38;;;0.70;;
40373;SDS011;26079;45.958;12.492;2023-01-23T02:05:27;1.83;;;1.15;;
40373;SDS011;26079;45.958;12.492;2023-01-23T02:08:07;0.85;;;0.68;;
40373;SDS011;26079;45.958;12.492;2023-01-23T02:16:11;2.10;;;1.02;;
40373;SDS011;26079;45.958;12.492;2023-01-23T02:18:40;1.08;;;0.82;;
40373;SDS011;26079;45.958;12.492;2023-01-23T02:21:08;1.90;;;0.98;;
40373;SDS011;26079;45.958;12.492;2023-01-23T02:26:52;1.98;;;1.13;;
40373;SDS011;26079;45.958;12.492;2023-01-23T02:29:18;1.70;;;1.38;;
40373;SDS011;26079;45.958;12.492;2023-01-23T02:31:44;2.42;;;1.77;;
40373;SDS011;26079;45.958;12.492;2023-01-23T02:34:11;1.60;;;1.08;;
40373;SDS011;26079;45.958;12.492;2023-01-23T02:36:37;5.35;;;2.08;;
40373;SDS011;26079;45.958;12.492;2023-01-23T02:39:16;1.77;;;1.15;;
40373;SDS011;26079;45.958;12.492;2023-01-23T02:41:47;2.67;;;0.88;;
40373;SDS011;26079;45.958;12.492;2023-01-23T02:46:40;0.63;;;0.50;;
40373;SDS011;26079;45.958;12.492;2023-01-23T02:49:06;2.75;;;1.30;;
40373;SDS011;26079;45.958;12.492;2023-01-23T02:51:32;2.90;;;1.70;;
40373;SDS011;26079;45.958;12.492;2023-01-23T02:53:57;2.55;;;1.83;;
40373;SDS011;26079;45.958;12.492;2023-01-23T02:56:23;0.80;;;0.80;;
40373;SDS011;26079;45.958;12.492;2023-01-23T02:58:49;6.63;;;0.60;;
40373;SDS011;26079;45.958;12.492;2023-01-23T03:01:33;0.45;;;0.45;;
40373;SDS011;26079;45.958;12.492;2023-01-23T03:04:00;1.13;;;1.02;;
40373;SDS011;26079;45.958;12.492;2023-01-23T03:06:27;0.80;;;0.60;;
40373;SDS011;26079;45.958;12.492;2023-01-23T03:08:55;0.52;;;0.52;;
40373;SDS011;26079;45.958;12.492;2023-01-23T03:11:21;1.08;;;0.80;;
40373;SDS011;26079;45.958;12.492;2023-01-23T03:13:47;0.90;;;0.57;;
40373;SDS011;26079;45.958;12.492;2023-01-23T03:16:13;0.73;;;0.68;;
40373;SDS011;26079;45.958;12.492;2023-01-23T03:18:39;1.63;;;1.13;;
40373;SDS011;26079;45.958;12.492;2023-01-23T03:21:05;3.92;;;0.70;;
40373;SDS011;26079;45.958;12.492;2023-01-23T03:23:32;2.35;;;0.90;;
40373;SDS011;26079;45.958;12.492;2023-01-23T03:25:58;0.98;;;0.70;;
40373;SDS011;26079;45.958;12.492;2023-01-23T03:28:24;0.77;;;0.75;;
40373;SDS011;26079;45.958;12.492;2023-01-23T03:31:10;1.45;;;0.70;;
40373;SDS011;26079;45.958;12.492;2023-01-23T03:33:37;1.23;;;0.75;;
40373;SDS011;26079;45.958;12.492;2023-01-23T03:36:04;0.52;;;0.50;;
40373;SDS011;26079;45.958;12.492;2023-01-23T03:38:32;0.30;;;0.30;;
40373;SDS011;26079;45.958;12.492;2023-01-23T03:40:58;0.35;;;0.32;;
40373;SDS011;26079;45.958;12.492;2023-01-23T03:43:42;0.60;;;0.40;;
40373;SDS011;26079;45.958;12.492;2023-01-23T03:46:08;0.80;;;0.57;;
40373;SDS011;26079;45.958;12.492;2023-01-23T03:48:33;1.17;;;0.50;;
40373;SDS011;26079;45.958;12.492;2023-01-23T03:50:59;0.60;;;0.60;;
40373;SDS011;26079;45.958;12.492;2023-01-23T03:53:25;0.22;;;0.22;;
40373;SDS011;26079;45.958;12.492;2023-01-23T03:55:51;1.33;;;0.50;;
40373;SDS011;26079;45.958;12.492;2023-01-23T03:58:17;3.60;;;0.65;;
40373;SDS011;26079;45.958;12.492;2023-01-23T04:00:43;1.38;;;0.30;;
40373;SDS011;26079;45.958;12.492;2023-01-23T04:03:10;0.70;;;0.60;;
40373;SDS011;26079;45.958;12.492;2023-01-23T04:05:35;1.33;;;0.32;;
40373;SDS011;26079;45.958;12.492;2023-01-23T04:08:01;0.93;;;0.30;;
40373;SDS011;26079;45.958;12.492;2023-01-23T04:10:27;2.50;;;0.50;;
40373;SDS011;26079;45.958;12.492;2023-01-23T04:12:53;0.40;;;0.40;;
40373;SDS011;26079;45.958;12.492;2023-01-23T04:15:18;1.13;;;0.43;;
40373;SDS011;26079;45.958;12.492;2023-01-23T04:17:44;1.02;;;0.65;;
40373;SDS011;26079;45.958;12.492;2023-01-23T04:20:10;0.82;;;0.82;;
40373;SDS011;26079;45.958;12.492;2023-01-23T04:22:37;0.98;;;0.50;;
40373;SDS011;26079;45.958;12.492;2023-01-23T04:25:03;0.70;;;0.60;;
40373;SDS011;26079;45.958;12.492;2023-01-23T04:27:29;0.80;;;0.68;;
40373;SDS011;26079;45.958;12.492;2023-01-23T04:29:56;1.42;;;0.85;;
40373;SDS011;26079;45.958;12.492;2023-01-23T04:32:22;0.82;;;0.50;;
40373;SDS011;26079;45.958;12.492;2023-01-23T04:34:48;1.35;;;0.57;;
40373;SDS011;26079;45.958;12.492;2023-01-23T04:37:14;0.63;;;0.60;;
40373;SDS011;26079;45.958;12.492;2023-01-23T04:39:40;1.20;;;0.63;;
40373;SDS011;26079;45.958;12.492;2023-01-23T04:42:06;0.82;;;0.70;;
40373;SDS011;26079;45.958;12.492;2023-01-23T04:44:32;2.10;;;0.57;;
40373;SDS011;26079;45.958;12.492;2023-01-23T04:46:57;0.93;;;0.63;;
40373;SDS011;26079;45.958;12.492;2023-01-23T04:49:24;2.58;;;0.98;;
40373;SDS011;26079;45.958;12.492;2023-01-23T04:51:50;2.67;;;0.60;;
40373;SDS011;26079;45.958;12.492;2023-01-23T04:54:17;0.60;;;0.60;;
40373;SDS011;26079;45.958;12.492;2023-01-23T04:56:43;2.10;;;1.42;;
40373;SDS011;26079;45.958;12.492;2023-01-23T04:59:09;1.85;;;1.42;;
40373;SDS011;26079;45.958;12.492;2023-01-23T05:01:35;3.38;;;1.75;;
40373;SDS011;26079;45.958;12.492;2023-01-23T05:04:01;1.02;;;0.60;;
40373;SDS011;26079;45.958;12.492;2023-01-23T05:06:27;2.53;;;1.10;;
40373;SDS011;26079;45.958;12.492;2023-01-23T05:08:53;0.70;;;0.70;;
40373;SDS011;26079;45.958;12.492;2023-01-23T05:11:19;0.40;;;0.40;;
40373;SDS011;26079;45.958;12.492;2023-01-23T05:13:45;0.85;;;0.40;;
40373;SDS011;26079;45.958;12.492;2023-01-23T05:16:11;1.05;;;0.98;;
40373;SDS011;26079;45.958;12.492;2023-01-23T05:18:36;1.33;;;1.20;;
40373;SDS011;26079;45.958;12.492;2023-01-23T05:21:02;3.10;;;1.55;;
40373;SDS011;26079;45.958;12.492;2023-01-23T05:23:28;1.60;;;0.90;;
40373;SDS011;26079;45.958;12.492;2023-01-23T05:25:54;1.42;;;1.05;;
40373;SDS011;26079;45.958;12.492;2023-01-23T05:28:19;6.38;;;1.40;;
40373;SDS011;26079;45.958;12.492;2023-01-23T05:30:45;1.98;;;1.58;;
40373;SDS011;26079;45.958;12.492;2023-01-23T05:33:11;4.25;;;1.33;;
40373;SDS011;26079;45.958;12.492;2023-01-23T05:35:37;0.93;;;0.77;;
40373;SDS011;26079;45.958;12.492;2023-01-23T05:38:03;1.48;;;1.00;;
40373;SDS011;26079;45.958;12.492;2023-01-23T05:41:21;4.47;;;3.45;;
40373;SDS011;26079;45.958;12.492;2023-01-23T05:43:47;5.20;;;4.35;;
40373;SDS011;26079;45.958;12.492;2023-01-23T05:46:14;1.10;;;1.00;;
40373;SDS011;26079;45.958;12.492;2023-01-23T05:48:40;7.28;;;5.97;;
40373;SDS011;26079;45.958;12.492;2023-01-23T05:52:50;1.30;;;1.20;;
40373;SDS011;26079;45.958;12.492;2023-01-23T05:55:16;0.88;;;0.70;;
40373;SDS011;26079;45.958;12.492;2023-01-23T05:57:42;1.90;;;1.20;;
40373;SDS011;26079;45.958;12.492;2023-01-23T06:00:08;1.63;;;1.25;;
40373;SDS011;26079;45.958;12.492;2023-01-23T06:04:20;0.30;;;0.30;;
40373;SDS011;26079;45.958;12.492;2023-01-23T06:06:45;0.22;;;0.22;;
40373;SDS011;26079;45.958;12.492;2023-01-23T06:09:11;0.85;;;0.40;;
40373;SDS011;26079;45.958;12.492;2023-01-23T06:11:37;0.45;;;0.30;;
40373;SDS011;26079;45.958;12.492;2023-01-23T06:15:15;0.50;;;0.40;;
40373;SDS011;26079;45.958;12.492;2023-01-23T06:19:02;5.70;;;3.58;;
40373;SDS011;26079;45.958;12.492;2023-01-23T06:21:28;2.58;;;1.33;;
40373;SDS011;26079;45.958;12.492;2023-01-23T06:23:54;0.65;;;0.57;;
40373;SDS011;26079;45.958;12.492;2023-01-23T06:26:19;0.40;;;0.38;;
40373;SDS011;26079;45.958;12.492;2023-01-23T06:28:45;0.80;;;0.57;;
40373;SDS011;26079;45.958;12.492;2023-01-23T06:31:11;0.70;;;0.55;;
40373;SDS011;26079;45.958;12.492;2023-01-23T06:33:36;2.33;;;1.00;;
40373;SDS011;26079;45.958;12.492;2023-01-23T06:36:03;0.30;;;0.30;;
40373;SDS011;26079;45.958;12.492;2023-01-23T06:39:34;1.63;;;0.38;;
40373;SDS011;26079;45.958;12.492;2023-01-23T06:41:59;0.68;;;0.40;;
40373;SDS011;26079;45.958;12.492;2023-01-23T06:47:54;0.77;;;0.50;;
40373;SDS011;26079;45.958;12.492;2023-01-23T06:50:19;3.20;;;0.57;;
40373;SDS011;26079;45.958;12.492;2023-01-23T06:53:11;1.77;;;0.35;;
40373;SDS011;26079;45.958;12.492;2023-01-23T06:55:41;0.65;;;0.65;;
40373;SDS011;26079;45.958;12.492;2023-01-23T06:58:31;0.68;;;0.30;;
40373;SDS011;26079;45.958;12.492;2023-01-23T07:00:58;1.40;;;0.50;;
40373;SDS011;26079;45.958;12.492;2023-01-23T07:05:54;4.75;;;1.00;;
40373;SDS011;26079;45.958;12.492;2023-01-23T07:08:20;0.63;;;0.55;;
40373;SDS011;26079;45.958;12.492;2023-01-23T07:10:47;0.28;;;0.25;;
40373;SDS011;26079;45.958;12.492;2023-01-23T07:13:13;0.95;;;0.65;;
40373;SDS011;26079;45.958;12.492;2023-01-23T07:15:39;1.30;;;0.77;;
40373;SDS011;26079;45.958;12.492;2023-01-23T07:18:26;1.33;;;0.95;;
40373;SDS011;26079;45.958;12.492;2023-01-23T07:23:02;0.60;;;0.35;;
40373;SDS011;26079;45.958;12.492;2023-01-23T07:55:05;4.43;;;0.43;;
40373;SDS011;26079;45.958;12.492;2023-01-23T07:57:31;0.55;;;0.30;;
40373;SDS011;26079;45.958;12.492;2023-01-23T08:00:00;1.17;;;0.52;;
40373;SDS011;26079;45.958;12.492;2023-01-23T08:02:26;2.83;;;1.15;;
40373;SDS011;26079;45.958;12.492;2023-01-23T08:04:51;1.30;;;0.57;;
40373;SDS011;26079;45.958;12.492;2023-01-23T08:07:17;1.77;;;0.90;;
40373;SDS011;26079;45.958;12.492;2023-01-23T08:09:43;1.08;;;0.80;;
40373;SDS011;26079;45.958;12.492;2023-01-23T08:12:08;8.43;;;1.83;;
40373;SDS011;26079;45.958;12.492;2023-01-23T08:14:36;4.15;;;1.83;;
40373;SDS011;26079;45.958;12.492;2023-01-23T08:17:02;2.88;;;1.63;;
40373;SDS011;26079;45.958;12.492;2023-01-23T08:19:27;1.30;;;0.98;;
40373;SDS011;26079;45.958;12.492;2023-01-23T08:21:53;1.92;;;1.52;;
40373;SDS011;26079;45.958;12.492;2023-01-23T08:24:19;3.17;;;1.95;;
40373;SDS011;26079;45.958;12.492;2023-01-23T08:26:45;1.92;;;1.52;;
40373;SDS011;26079;45.958;12.492;2023-01-23T08:29:10;2.67;;;1.98;;
40373;SDS011;26079;45.958;12.492;2023-01-23T08:31:37;0.55;;;0.55;;
40373;SDS011;26079;45.958;12.492;2023-01-23T08:34:49;0.50;;;0.50;;
40373;SDS011;26079;45.958;12.492;2023-01-23T08:37:15;2.28;;;0.38;;
40373;SDS011;26079;45.958;12.492;2023-01-23T08:39:41;0.22;;;0.20;;
40373;SDS011;26079;45.958;12.492;2023-01-23T08:42:06;0.85;;;0.35;;
40373;SDS011;26079;45.958;12.492;2023-01-23T08:44:32;2.33;;;0.45;;
40373;SDS011;26079;45.958;12.492;2023-01-23T08:46:59;2.08;;;1.50;;
40373;SDS011;26079;45.958;12.492;2023-01-23T08:49:27;0.80;;;0.50;;
40373;SDS011;26079;45.958;12.492;2023-01-23T08:51:52;0.60;;;0.52;;
40373;SDS011;26079;45.958;12.492;2023-01-23T08:54:18;1.42;;;1.02;;
40373;SDS011;26079;45.958;12.492;2023-01-23T08:56:44;0.50;;;0.40;;
40373;SDS011;26079;45.958;12.492;2023-01-23T08:59:10;0.70;;;0.50;;
40373;SDS011;26079;45.958;12.492;2023-01-23T09:01:35;0.55;;;0.30;;
40373;SDS011;26079;45.958;12.492;2023-01-23T09:04:01;0.20;;;0.10;;
40373;SDS011;26079;45.958;12.492;2023-01-23T09:07:19;0.45;;;0.30;;
40373;SDS011;26079;45.958;12.492;2023-01-23T09:09:44;0.60;;;0.55;;
40373;SDS011;26079;45.958;12.492;2023-01-23T09:12:10;0.65;;;0.20;;
40373;SDS011;26079;45.958;12.492;2023-01-23T09:14:36;0.77;;;0.60;;
40373;SDS011;26079;45.958;12.492;2023-01-23T09:17:01;1.58;;;1.15;;
40373;SDS011;26079;45.958;12.492;2023-01-23T09:19:29;0.40;;;0.30;;
40373;SDS011;26079;45.958;12.492;2023-01-23T09:21:56;0.40;;;0.38;;
40373;SDS011;26079;45.958;12.492;2023-01-23T09:24:22;1.10;;;0.60;;
40373;SDS011;26079;45.958;12.492;2023-01-23T09:26:47;0.70;;;0.70;;
40373;SDS011;26079;45.958;12.492;2023-01-23T09:29:13;6.93;;;0.68;;
40373;SDS011;26079;45.958;12.492;2023-01-23T09:31:39;0.10;;;0.10;;
40373;SDS011;26079;45.958;12.492;2023-01-23T09:34:05;0.35;;;0.20;;
40373;SDS011;26079;45.958;12.492;2023-01-23T09:36:31;0.90;;;0.35;;
40373;SDS011;26079;45.958;12.492;2023-01-23T09:38:58;1.50;;;1.20;;
40373;SDS011;26079;45.958;12.492;2023-01-23T09:41:25;0.75;;;0.63;;
40373;SDS011;26079;45.958;12.492;2023-01-23T09:44:00;1.13;;;0.60;;
40373;SDS011;26079;45.958;12.492;2023-01-23T09:46:50;0.80;;;0.75;;
40373;SDS011;26079;45.958;12.492;2023-01-23T09:51:59;0.68;;;0.63;;
40373;SDS011;26079;45.958;12.492;2023-01-23T09:54:33;0.80;;;0.77;;
40373;SDS011;26079;45.958;12.492;2023-01-23T09:57:18;1.13;;;0.80;;
40373;SDS011;26079;45.958;12.492;2023-01-23T09:59:49;4.68;;;1.27;;
40373;SDS011;26079;45.958;12.492;2023-01-23T10:02:23;0.90;;;0.80;;
40373;SDS011;26079;45.958;12.492;2023-01-23T10:04:49;2.67;;;1.00;;
40373;SDS011;26079;45.958;12.492;2023-01-23T10:13:14;3.40;;;0.75;;
40373;SDS011;26079;45.958;12.492;2023-01-23T10:27:12;0.77;;;0.50;;
40373;SDS011;26079;45.958;12.492;2023-01-23T10:32:40;1.33;;;0.80;;
40373;SDS011;26079;45.958;12.492;2023-01-23T10:35:23;1.38;;;1.17;;
40373;SDS011;26079;45.958;12.492;2023-01-23T10:41:00;1.38;;;0.93;;
40373;SDS011;26079;45.958;12.492;2023-01-23T10:43:39;1.25;;;0.57;;
40373;SDS011;26079;45.958;12.492;2023-01-23T10:46:15;2.33;;;1.38;;
40373;SDS011;26079;45.958;12.492;2023-01-23T10:48:47;2.97;;;1.30;;
40373;SDS011;26079;45.958;12.492;2023-01-23T10:56:30;2.75;;;1.75;;
40373;SDS011;26079;45.958;12.492;2023-01-23T10:58:57;1.40;;;1.25;;
40373;SDS011;26079;45.958;12.492;2023-01-23T11:01:30;1.40;;;1.30;;
40373;SDS011;26079;45.958;12.492;2023-01-23T11:04:16;3.15;;;2.05;;
40373;SDS011;26079;45.958;12.492;2023-01-23T11:06:45;2.22;;;1.92;;
40373;SDS011;26079;45.958;12.492;2023-01-23T11:09:26;3.03;;;1.73;;
40373;SDS011;26079;45.958;12.492;2023-01-23T11:12:04;1.83;;;1.20;;
40373;SDS011;26079;45.958;12.492;2023-01-23T11:14:30;1.48;;;0.85;;
40373;SDS011;26079;45.958;12.492;2023-01-23T11:17:01;1.30;;;0.80;;
40373;SDS011;26079;45.958;12.492;2023-01-23T11:19:37;4.57;;;1.70;;
40373;SDS011;26079;45.958;12.492;2023-01-23T11:22:03;2.28;;;1.17;;
40373;SDS011;26079;45.958;12.492;2023-01-23T11:24:36;1.10;;;0.75;;
40373;SDS011;26079;45.958;12.492;2023-01-23T11:29:51;1.05;;;0.82;;
40373;SDS011;26079;45.958;12.492;2023-01-23T11:32:48;0.75;;;0.70;;
40373;SDS011;26079;45.958;12.492;2023-01-23T11:35:21;2.13;;;0.90;;
40373;SDS011;26079;45.958;12.492;2023-01-23T11:38:07;0.40;;;0.40;;
40373;SDS011;26079;45.958;12.492;2023-01-23T11:40:39;0.30;;;0.30;;
40373;SDS011;26079;45.958;12.492;2023-01-23T11:43:09;0.43;;;0.30;;
40373;SDS011;26079;45.958;12.492;2023-01-23T11:59:11;0.80;;;0.57;;
40373;SDS011;26079;45.958;12.492;2023-01-23T12:07:29;1.60;;;0.82;;
40373;SDS011;26079;45.958;12.492;2023-01-23T12:10:27;1.08;;;1.00;;
40373;SDS011;26079;45.958;12.492;2023-01-23T12:15:44;1.45;;;0.82;;
40373;SDS011;26079;45.958;12.492;2023-01-23T12:26:22;1.10;;;0.85;;
40373;SDS011;26079;45.958;12.492;2023-01-23T12:43:00;0.70;;;0.45;;
40373;SDS011;26079;45.958;12.492;2023-01-23T12:45:51;0.52;;;0.52;;
40373;SDS011;26079;45.958;12.492;2023-01-23T12:48:26;1.27;;;0.90;;
40373;SDS011;26079;45.958;12.492;2023-01-23T12:50:59;2.55;;;1.58;;
40373;SDS011;26079;45.958;12.492;2023-01-23T12:53:33;4.07;;;3.15;;
40373;SDS011;26079;45.958;12.492;2023-01-23T12:58:32;1.25;;;1.00;;
40373;SDS011;26079;45.958;12.492;2023-01-23T13:13:42;0.43;;;0.40;;
40373;SDS011;26079;45.958;12.492;2023-01-23T13:16:14;2.50;;;1.25;;
40373;SDS011;26079;45.958;12.492;2023-01-23T13:18:54;0.80;;;0.40;;
40373;SDS011;26079;45.958;12.492;2023-01-23T13:21:39;0.80;;;0.50;;
40373;SDS011;26079;45.958;12.492;2023-01-23T13:32:46;1.42;;;1.00;;
40373;SDS011;26079;45.958;12.492;2023-01-23T13:43:54;1.23;;;0.90;;
40373;SDS011;26079;45.958;12.492;2023-01-23T13:46:42;1.63;;;0.60;;
40373;SDS011;26079;45.958;12.492;2023-01-23T13:55:34;1.30;;;1.20;;
40373;SDS011;26079;45.958;12.492;2023-01-23T13:58:24;1.33;;;0.70;;
40373;SDS011;26079;45.958;12.492;2023-01-23T14:00:53;0.73;;;0.73;;
40373;SDS011;26079;45.958;12.492;2023-01-23T14:03:51;0.73;;;0.57;;
40373;SDS011;26079;45.958;12.492;2023-01-23T14:06:41;4.05;;;0.70;;
40373;SDS011;26079;45.958;12.492;2023-01-23T14:11:56;0.32;;;0.20;;
40373;SDS011;26079;45.958;12.492;2023-01-23T14:14:31;0.50;;;0.30;;
40373;SDS011;26079;45.958;12.492;2023-01-23T14:17:16;0.73;;;0.40;;
40373;SDS011;26079;45.958;12.492;2023-01-23T14:22:23;0.43;;;0.30;;
40373;SDS011;26079;45.958;12.492;2023-01-23T14:24:53;0.52;;;0.52;;
40373;SDS011;26079;45.958;12.492;2023-01-23T14:30:25;0.45;;;0.40;;
40373;SDS011;26079;45.958;12.492;2023-01-23T14:32:53;0.43;;;0.30;;
40373;SDS011;26079;45.958;12.492;2023-01-23T14:35:29;0.43;;;0.43;;
40373;SDS011;26079;45.958;12.492;2023-01-23T14:37:59;0.75;;;0.30;;
40373;SDS011;26079;45.958;12.492;2023-01-23T14:40:29;0.63;;;0.57;;
40373;SDS011;26079;45.958;12.492;2023-01-23T14:43:05;1.65;;;0.30;;
40373;SDS011;26079;45.958;12.492;2023-01-23T14:45:33;0.65;;;0.63;;
40373;SDS011;26079;45.958;12.492;2023-01-23T14:48:01;2.78;;;0.70;;
40373;SDS011;26079;45.958;12.492;2023-01-23T14:50:29;2.05;;;1.00;;
40373;SDS011;26079;45.958;12.492;2023-01-23T14:55:50;0.43;;;0.40;;
40373;SDS011;26079;45.958;12.492;2023-01-23T14:58:21;0.50;;;0.50;;
40373;SDS011;26079;45.958;12.492;2023-01-23T15:00:48;3.05;;;0.60;;
40373;SDS011;26079;45.958;12.492;2023-01-23T15:03:35;1.05;;;0.55;;
40373;SDS011;26079;45.958;12.492;2023-01-23T15:06:15;0.28;;;0.28;;
40373;SDS011;26079;45.958;12.492;2023-01-23T15:08:44;0.30;;;0.30;;
40373;SDS011;26079;45.958;12.492;2023-01-23T15:11:11;0.35;;;0.30;;
40373;SDS011;26079;45.958;12.492;2023-01-23T15:16:12;1.30;;;0.25;;
40373;SDS011;26079;45.958;12.492;2023-01-23T15:18:51;1.33;;;0.60;;
40373;SDS011;26079;45.958;12.492;2023-01-23T15:21:44;0.55;;;0.30;;
40373;SDS011;26079;45.958;12.492;2023-01-23T15:26:39;1.13;;;0.93;;
40373;SDS011;26079;45.958;12.492;2023-01-23T15:44:42;1.20;;;0.35;;
40373;SDS011;26079;45.958;12.492;2023-01-23T15:47:09;0.52;;;0.52;;
40373;SDS011;26079;45.958;12.492;2023-01-23T15:49:35;0.60;;;0.50;;
40373;SDS011;26079;45.958;12.492;2023-01-23T15:57:13;2.25;;;1.30;;
40373;SDS011;26079;45.958;12.492;2023-01-23T15:59:38;4.57;;;1.30;;
40373;SDS011;26079;45.958;12.492;2023-01-23T16:02:05;0.63;;;0.47;;
40373;SDS011;26079;45.958;12.492;2023-01-23T16:04:32;0.57;;;0.43;;
40373;SDS011;26079;45.958;12.492;2023-01-23T16:06:58;0.43;;;0.43;;
40373;SDS011;26079;45.958;12.492;2023-01-23T16:09:29;0.75;;;0.68;;
40373;SDS011;26079;45.958;12.492;2023-01-23T16:12:00;1.67;;;0.80;;
40373;SDS011;26079;45.958;12.492;2023-01-23T16:14:26;2.95;;;0.80;;
40373;SDS011;26079;45.958;12.492;2023-01-23T16:16:52;2.33;;;1.70;;
40373;SDS011;26079;45.958;12.492;2023-01-23T16:19:18;2.33;;;2.13;;
40373;SDS011;26079;45.958;12.492;2023-01-23T16:21:44;1.38;;;1.23;;
40373;SDS011;26079;45.958;12.492;2023-01-23T16:24:17;3.58;;;2.83;;
40373;SDS011;26079;45.958;12.492;2023-01-23T16:26:46;1.25;;;1.15;;
40373;SDS011;26079;45.958;12.492;2023-01-23T16:29:22;1.75;;;1.60;;
40373;SDS011;26079;45.958;12.492;2023-01-23T16:31:54;1.83;;;1.52;;
40373;SDS011;26079;45.958;12.492;2023-01-23T16:34:20;3.25;;;1.40;;
40373;SDS011;26079;45.958;12.492;2023-01-23T16:36:47;1.40;;;1.00;;
40373;SDS011;26079;45.958;12.492;2023-01-23T16:39:18;1.33;;;1.13;;
40373;SDS011;26079;45.958;12.492;2023-01-23T16:41:46;0.73;;;0.65;;
40373;SDS011;26079;45.958;12.492;2023-01-23T16:44:13;3.90;;;1.65;;
40373;SDS011;26079;45.958;12.492;2023-01-23T16:46:46;1.55;;;1.33;;
40373;SDS011;26079;45.958;12.492;2023-01-23T16:49:13;0.98;;;0.55;;
40373;SDS011;26079;45.958;12.492;2023-01-23T16:51:40;1.23;;;1.13;;
40373;SDS011;26079;45.958;12.492;2023-01-23T16:54:20;1.38;;;1.00;;
40373;SDS011;26079;45.958;12.492;2023-01-23T16:56:47;1.23;;;1.13;;
40373;SDS011;26079;45.958;12.492;2023-01-23T16:59:18;0.50;;;0.45;;
40373;SDS011;26079;45.958;12.492;2023-01-23T17:01:54;0.52;;;0.50;;
40373;SDS011;26079;45.958;12.492;2023-01-23T17:04:20;0.30;;;0.30;;
40373;SDS011;26079;45.958;12.492;2023-01-23T17:06:46;0.75;;;0.60;;
40373;SDS011;26079;45.958;12.492;2023-01-23T17:09:13;1.25;;;0.50;;
40373;SDS011;26079;45.958;12.492;2023-01-23T17:11:50;1.40;;;0.50;;
40373;SDS011;26079;45.958;12.492;2023-01-23T17:14:19;1.15;;;0.73;;
40373;SDS011;26079;45.958;12.492;2023-01-23T17:16:51;0.93;;;0.80;;
40373;SDS011;26079;45.958;12.492;2023-01-23T17:19:20;1.65;;;1.10;;
40373;SDS011;26079;45.958;12.492;2023-01-23T17:21:56;1.10;;;1.00;;
40373;SDS011;26079;45.958;12.492;2023-01-23T17:24:24;1.50;;;1.23;;
40373;SDS011;26079;45.958;12.492;2023-01-23T17:26:50;1.15;;;1.05;;
40373;SDS011;26079;45.958;12.492;2023-01-23T17:29:15;0.85;;;0.80;;
40373;SDS011;26079;45.958;12.492;2023-01-23T17:31:41;0.95;;;0.88;;
40373;SDS011;26079;45.958;12.492;2023-01-23T17:34:11;1.38;;;1.23;;
40373;SDS011;26079;45.958;12.492;2023-01-23T17:36:44;1.70;;;1.13;;
40373;SDS011;26079;45.958;12.492;2023-01-23T17:39:10;2.15;;;0.80;;
40373;SDS011;26079;45.958;12.492;2023-01-23T17:41:36;0.77;;;0.60;;
40373;SDS011;26079;45.958;12.492;2023-01-23T17:44:01;0.60;;;0.40;;
40373;SDS011;26079;45.958;12.492;2023-01-23T17:46:28;1.13;;;0.80;;
40373;SDS011;26079;45.958;12.492;2023-01-23T17:48:57;0.60;;;0.52;;
40373;SDS011;26079;45.958;12.492;2023-01-23T17:51:24;1.15;;;0.75;;
40373;SDS011;26079;45.958;12.492;2023-01-23T17:53:50;2.00;;;1.27;;
40373;SDS011;26079;45.958;12.492;2023-01-23T17:56:16;1.85;;;1.65;;
40373;SDS011;26079;45.958;12.492;2023-01-23T17:58:42;1.75;;;1.63;;
40373;SDS011;26079;45.958;12.492;2023-01-23T18:01:29;2.42;;;1.73;;
40373;SDS011;26079;45.958;12.492;2023-01-23T18:03:54;1.52;;;1.30;;
40373;SDS011;26079;45.958;12.492;2023-01-23T18:06:19;1.10;;;0.95;;
40373;SDS011;26079;45.958;12.492;2023-01-23T18:08:45;0.73;;;0.63;;
40373;SDS011;26079;45.958;12.492;2023-01-23T18:11:14;1.83;;;1.17;;
40373;SDS011;26079;45.958;12.492;2023-01-23T18:16:47;1.40;;;1.30;;
40373;SDS011;26079;45.958;12.492;2023-01-23T18:19:18;1.60;;;1.45;;
40373;SDS011;26079;45.958;12.492;2023-01-23T18:21:45;3.80;;;1.73;;
40373;SDS011;26079;45.958;12.492;2023-01-23T18:24:19;0.60;;;0.60;;
40373;SDS011;26079;45.958;12.492;2023-01-23T18:35:36;1.25;;;0.88;;
40373;SDS011;26079;45.958;12.492;2023-01-23T18:41:27;8.95;;;5.28;;